sensor_id;sensor_type;location;lat;lon;timestamp;temperature;humidity
17146;DHT22;8688;54.444;18.444;2022-09-03T00:08:35;13.10;1.00
17146;DHT22;8688;54.444;18.444;2022-09-03T00:11:10;13.20;1.00
17146;DHT22;8688;54.444;18.444;2022-09-03T00:13:43;13.20;1.00
17146;DHT22;8688;54.444;18.444;2022-09-03T00:16:14;13.20;1.00
17146;DHT22;8688;54.444;18.444;2022-09-03T00:18:46;13.20;1.00
17146;DHT22;8688;54.444;18.444;2022-09-03T00:21:19;13.20;99.90
17146;DHT22;8688;54.444;18.444;2022-09-03T00:23:51;13.20;1.00
17146;DHT22;8688;54.444;18.444;2022-09-03T00:26:24;13.10;1.00
17146;DHT22;8688;54.444;18.444;2022-09-03T00:28:58;13.20;1.00
17146;DHT22;8688;54.444;18.444;2022-09-03T00:31:32;13.10;99.90
17146;DHT22;8688;54.444;18.444;2022-09-03T00:34:05;13.10;99.90
17146;DHT22;8688;54.444;18.444;2022-09-03T00:36:37;13.20;1.00
17146;DHT22;8688;54.444;18.444;2022-09-03T00:39:11;13.20;1.00
17146;DHT22;8688;54.444;18.444;2022-09-03T00:41:47;13.10;99.90
17146;DHT22;8688;54.444;18.444;2022-09-03T00:44:39;13.10;1.00
17146;DHT22;8688;54.444;18.444;2022-09-03T00:47:18;13.10;1.00
17146;DHT22;8688;54.444;18.444;2022-09-03T00:49:59;13.00;1.00
17146;DHT22;8688;54.444;18.444;2022-09-03T00:55:06;13.00;1.00
17146;DHT22;8688;54.444;18.444;2022-09-03T00:57:45;13.00;1.00
17146;DHT22;8688;54.444;18.444;2022-09-03T01:00:18;13.00;1.00
17146;DHT22;8688;54.444;18.444;2022-09-03T01:03:00;12.90;99.90
17146;DHT22;8688;54.444;18.444;2022-09-03T01:05:47;12.90;99.90
17146;DHT22;8688;54.444;18.444;2022-09-03T01:08:28;12.80;99.90
17146;DHT22;8688;54.444;18.444;2022-09-03T01:11:08;12.80;99.90
17146;DHT22;8688;54.444;18.444;2022-09-03T01:13:42;12.70;99.90
17146;DHT22;8688;54.444;18.444;2022-09-03T01:16:18;12.60;99.90
17146;DHT22;8688;54.444;18.444;2022-09-03T01:18:51;12.60;1.00
17146;DHT22;8688;54.444;18.444;2022-09-03T01:24:30;12.60;1.00
17146;DHT22;8688;54.444;18.444;2022-09-03T01:27:14;12.60;1.00
17146;DHT22;8688;54.444;18.444;2022-09-03T01:29:50;12.60;1.00
17146;DHT22;8688;54.444;18.444;2022-09-03T01:32:26;12.60;1.00
17146;DHT22;8688;54.444;18.444;2022-09-03T01:35:06;12.60;1.00
17146;DHT22;8688;54.444;18.444;2022-09-03T01:40:12;12.50;1.00
17146;DHT22;8688;54.444;18.444;2022-09-03T01:42:52;12.50;1.00
17146;DHT22;8688;54.444;18.444;2022-09-03T01:45:36;12.40;1.00
17146;DHT22;8688;54.444;18.444;2022-09-03T01:48:24;12.50;1.00
17146;DHT22;8688;54.444;18.444;2022-09-03T01:51:01;12.40;1.00
17146;DHT22;8688;54.444;18.444;2022-09-03T01:56:07;12.50;1.00
17146;DHT22;8688;54.444;18.444;2022-09-03T01:58:41;12.40;1.00
17146;DHT22;8688;54.444;18.444;2022-09-03T02:01:16;12.40;1.00
17146;DHT22;8688;54.444;18.444;2022-09-03T02:03:46;12.40;1.00
17146;DHT22;8688;54.444;18.444;2022-09-03T02:06:14;12.40;1.00
17146;DHT22;8688;54.444;18.444;2022-09-03T02:08:45;12.40;1.00
17146;DHT22;8688;54.444;18.444;2022-09-03T02:11:12;12.30;1.00
17146;DHT22;8688;54.444;18.444;2022-09-03T02:13:41;12.30;1.00
17146;DHT22;8688;54.444;18.444;2022-09-03T02:16:14;12.30;1.00
17146;DHT22;8688;54.444;18.444;2022-09-03T02:18:44;12.30;1.00
17146;DHT22;8688;54.444;18.444;2022-09-03T02:21:16;12.30;1.00
17146;DHT22;8688;54.444;18.444;2022-09-03T02:23:45;12.20;1.00
17146;DHT22;8688;54.444;18.444;2022-09-03T02:26:17;12.20;1.00
17146;DHT22;8688;54.444;18.444;2022-09-03T02:28:45;12.20;1.00
17146;DHT22;8688;54.444;18.444;2022-09-03T02:31:14;12.20;1.00
17146;DHT22;8688;54.444;18.444;2022-09-03T02:33:43;12.20;1.00
17146;DHT22;8688;54.444;18.444;2022-09-03T02:36:14;12.20;1.00
17146;DHT22;8688;54.444;18.444;2022-09-03T02:38:43;12.20;1.00
17146;DHT22;8688;54.444;18.444;2022-09-03T02:41:10;12.20;1.00
17146;DHT22;8688;54.444;18.444;2022-09-03T02:43:41;12.10;1.00
17146;DHT22;8688;54.444;18.444;2022-09-03T02:46:16;12.10;1.00
17146;DHT22;8688;54.444;18.444;2022-09-03T02:48:44;12.00;1.00
17146;DHT22;8688;54.444;18.444;2022-09-03T02:51:13;12.00;1.00
17146;DHT22;8688;54.444;18.444;2022-09-03T02:53:40;12.00;1.00
17146;DHT22;8688;54.444;18.444;2022-09-03T02:56:08;12.00;1.00
17146;DHT22;8688;54.444;18.444;2022-09-03T02:58:35;12.00;1.00
17146;DHT22;8688;54.444;18.444;2022-09-03T03:01:03;11.90;1.00
17146;DHT22;8688;54.444;18.444;2022-09-03T03:03:32;11.90;1.00
17146;DHT22;8688;54.444;18.444;2022-09-03T03:06:03;11.90;1.00
17146;DHT22;8688;54.444;18.444;2022-09-03T03:08:31;11.80;1.00
17146;DHT22;8688;54.444;18.444;2022-09-03T03:11:00;11.80;1.00
17146;DHT22;8688;54.444;18.444;2022-09-03T03:13:28;11.90;1.00
17146;DHT22;8688;54.444;18.444;2022-09-03T03:15:56;11.90;1.00
17146;DHT22;8688;54.444;18.444;2022-09-03T03:18:24;11.90;1.00
17146;DHT22;8688;54.444;18.444;2022-09-03T03:20:52;11.90;1.00
17146;DHT22;8688;54.444;18.444;2022-09-03T03:23:20;11.90;1.00
17146;DHT22;8688;54.444;18.444;2022-09-03T03:25:47;11.90;1.00
17146;DHT22;8688;54.444;18.444;2022-09-03T03:28:15;11.90;1.00
17146;DHT22;8688;54.444;18.444;2022-09-03T03:30:45;11.80;1.00
17146;DHT22;8688;54.444;18.444;2022-09-03T03:33:13;11.80;1.00
17146;DHT22;8688;54.444;18.444;2022-09-03T03:35:41;11.90;1.00
17146;DHT22;8688;54.444;18.444;2022-09-03T03:38:10;11.90;1.00
17146;DHT22;8688;54.444;18.444;2022-09-03T03:40:37;11.90;1.00
17146;DHT22;8688;54.444;18.444;2022-09-03T03:43:04;11.90;1.00
17146;DHT22;8688;54.444;18.444;2022-09-03T03:45:32;11.90;1.00
17146;DHT22;8688;54.444;18.444;2022-09-03T03:47:59;11.90;1.00
17146;DHT22;8688;54.444;18.444;2022-09-03T03:50:26;11.90;1.00
17146;DHT22;8688;54.444;18.444;2022-09-03T03:52:54;11.80;1.00
17146;DHT22;8688;54.444;18.444;2022-09-03T03:55:22;11.80;1.00
17146;DHT22;8688;54.444;18.444;2022-09-03T03:57:50;11.80;1.00
17146;DHT22;8688;54.444;18.444;2022-09-03T04:00:17;11.80;1.00
17146;DHT22;8688;54.444;18.444;2022-09-03T04:02:44;11.70;99.90
17146;DHT22;8688;54.444;18.444;2022-09-03T04:05:12;11.70;99.90
17146;DHT22;8688;54.444;18.444;2022-09-03T04:07:40;11.70;99.90
17146;DHT22;8688;54.444;18.444;2022-09-03T04:10:09;11.60;99.90
17146;DHT22;8688;54.444;18.444;2022-09-03T04:12:38;11.50;99.90
17146;DHT22;8688;54.444;18.444;2022-09-03T04:15:06;11.50;99.90
17146;DHT22;8688;54.444;18.444;2022-09-03T04:17:33;11.40;99.90
17146;DHT22;8688;54.444;18.444;2022-09-03T04:20:00;11.40;99.90
17146;DHT22;8688;54.444;18.444;2022-09-03T04:22:28;11.30;99.90
17146;DHT22;8688;54.444;18.444;2022-09-03T04:24:55;11.30;99.90
17146;DHT22;8688;54.444;18.444;2022-09-03T04:27:23;11.20;99.90
17146;DHT22;8688;54.444;18.444;2022-09-03T04:29:53;11.10;99.90
17146;DHT22;8688;54.444;18.444;2022-09-03T04:32:20;11.00;99.90
17146;DHT22;8688;54.444;18.444;2022-09-03T04:35:06;11.00;99.90
17146;DHT22;8688;54.444;18.444;2022-09-03T04:37:33;10.80;99.90
17146;DHT22;8688;54.444;18.444;2022-09-03T04:40:00;10.90;1.00
17146;DHT22;8688;54.444;18.444;2022-09-03T04:42:28;10.90;1.00
17146;DHT22;8688;54.444;18.444;2022-09-03T04:44:57;10.90;1.00
17146;DHT22;8688;54.444;18.444;2022-09-03T04:47:24;11.00;1.00
17146;DHT22;8688;54.444;18.444;2022-09-03T04:49:52;11.00;1.00
17146;DHT22;8688;54.444;18.444;2022-09-03T04:52:20;11.00;1.00
17146;DHT22;8688;54.444;18.444;2022-09-03T04:54:47;11.10;1.00
17146;DHT22;8688;54.444;18.444;2022-09-03T04:57:15;11.10;1.00
17146;DHT22;8688;54.444;18.444;2022-09-03T04:59:42;11.20;1.00
17146;DHT22;8688;54.444;18.444;2022-09-03T05:02:11;11.30;1.00
17146;DHT22;8688;54.444;18.444;2022-09-03T05:04:40;11.30;1.00
17146;DHT22;8688;54.444;18.444;2022-09-03T05:07:10;11.40;1.00
17146;DHT22;8688;54.444;18.444;2022-09-03T05:09:46;11.50;1.00
17146;DHT22;8688;54.444;18.444;2022-09-03T05:12:14;11.50;1.00
17146;DHT22;8688;54.444;18.444;2022-09-03T05:14:42;11.60;1.00
17146;DHT22;8688;54.444;18.444;2022-09-03T05:17:11;11.60;1.00
17146;DHT22;8688;54.444;18.444;2022-09-03T05:20:08;11.60;1.00
17146;DHT22;8688;54.444;18.444;2022-09-03T05:26:25;11.50;1.00
17146;DHT22;8688;54.444;18.444;2022-09-03T05:31:54;11.40;1.00
17146;DHT22;8688;54.444;18.444;2022-09-03T05:34:24;11.40;1.00
17146;DHT22;8688;54.444;18.444;2022-09-03T05:36:51;11.40;1.00
17146;DHT22;8688;54.444;18.444;2022-09-03T05:39:19;11.40;1.00
17146;DHT22;8688;54.444;18.444;2022-09-03T05:41:47;11.40;1.00
17146;DHT22;8688;54.444;18.444;2022-09-03T05:44:17;11.50;1.00
17146;DHT22;8688;54.444;18.444;2022-09-03T05:46:46;11.60;1.00
17146;DHT22;8688;54.444;18.444;2022-09-03T05:49:13;11.60;1.00
17146;DHT22;8688;54.444;18.444;2022-09-03T05:51:42;11.70;99.90
17146;DHT22;8688;54.444;18.444;2022-09-03T05:54:11;11.70;99.90
17146;DHT22;8688;54.444;18.444;2022-09-03T05:56:38;11.80;99.90
17146;DHT22;8688;54.444;18.444;2022-09-03T05:59:08;11.90;1.00
17146;DHT22;8688;54.444;18.444;2022-09-03T06:01:38;11.90;1.00
17146;DHT22;8688;54.444;18.444;2022-09-03T06:04:07;12.00;99.90
17146;DHT22;8688;54.444;18.444;2022-09-03T06:06:37;12.20;1.00
17146;DHT22;8688;54.444;18.444;2022-09-03T06:09:07;12.30;1.00
17146;DHT22;8688;54.444;18.444;2022-09-03T06:11:36;12.50;99.90
17146;DHT22;8688;54.444;18.444;2022-09-03T06:14:05;12.60;1.00
17146;DHT22;8688;54.444;18.444;2022-09-03T06:16:34;12.80;99.90
17146;DHT22;8688;54.444;18.444;2022-09-03T06:19:01;12.90;99.90
17146;DHT22;8688;54.444;18.444;2022-09-03T06:21:30;12.90;1.00
17146;DHT22;8688;54.444;18.444;2022-09-03T06:23:58;13.00;99.90
17146;DHT22;8688;54.444;18.444;2022-09-03T06:26:27;13.10;99.90
17146;DHT22;8688;54.444;18.444;2022-09-03T06:28:55;13.20;99.90
17146;DHT22;8688;54.444;18.444;2022-09-03T06:31:23;13.30;49.30
17146;DHT22;8688;54.444;18.444;2022-09-03T06:33:51;13.50;99.90
17146;DHT22;8688;54.444;18.444;2022-09-03T06:36:19;13.70;99.90
17146;DHT22;8688;54.444;18.444;2022-09-03T06:38:50;13.80;99.90
17146;DHT22;8688;54.444;18.444;2022-09-03T06:41:19;13.90;1.00
17146;DHT22;8688;54.444;18.444;2022-09-03T06:43:53;14.00;1.00
17146;DHT22;8688;54.444;18.444;2022-09-03T06:46:23;14.10;99.90
17146;DHT22;8688;54.444;18.444;2022-09-03T06:48:50;14.10;1.00
17146;DHT22;8688;54.444;18.444;2022-09-03T06:51:19;14.10;1.00
17146;DHT22;8688;54.444;18.444;2022-09-03T06:53:49;14.10;38.10
17146;DHT22;8688;54.444;18.444;2022-09-03T06:56:18;14.20;99.90
17146;DHT22;8688;54.444;18.444;2022-09-03T06:58:54;14.20;99.90
17146;DHT22;8688;54.444;18.444;2022-09-03T07:01:23;14.20;1.00
17146;DHT22;8688;54.444;18.444;2022-09-03T07:03:53;14.20;52.90
17146;DHT22;8688;54.444;18.444;2022-09-03T07:06:23;14.20;36.40
17146;DHT22;8688;54.444;18.444;2022-09-03T07:08:51;14.30;99.90
17146;DHT22;8688;54.444;18.444;2022-09-03T07:11:20;14.30;1.00
17146;DHT22;8688;54.444;18.444;2022-09-03T07:13:52;14.20;1.00
17146;DHT22;8688;54.444;18.444;2022-09-03T07:16:22;14.20;1.00
17146;DHT22;8688;54.444;18.444;2022-09-03T07:18:50;14.30;99.90
17146;DHT22;8688;54.444;18.444;2022-09-03T07:21:19;14.40;1.00
17146;DHT22;8688;54.444;18.444;2022-09-03T07:23:48;14.50;1.00
17146;DHT22;8688;54.444;18.444;2022-09-03T07:26:18;14.60;99.90
17146;DHT22;8688;54.444;18.444;2022-09-03T07:28:46;14.60;1.00
17146;DHT22;8688;54.444;18.444;2022-09-03T07:31:17;14.50;99.90
17146;DHT22;8688;54.444;18.444;2022-09-03T07:33:45;14.60;99.90
17146;DHT22;8688;54.444;18.444;2022-09-03T07:36:14;14.60;99.90
17146;DHT22;8688;54.444;18.444;2022-09-03T07:38:43;14.50;1.00
17146;DHT22;8688;54.444;18.444;2022-09-03T07:41:11;14.50;1.00
17146;DHT22;8688;54.444;18.444;2022-09-03T07:43:40;14.50;1.00
17146;DHT22;8688;54.444;18.444;2022-09-03T07:46:08;14.60;1.00
17146;DHT22;8688;54.444;18.444;2022-09-03T07:48:40;14.50;1.00
17146;DHT22;8688;54.444;18.444;2022-09-03T07:51:09;14.60;1.00
17146;DHT22;8688;54.444;18.444;2022-09-03T07:53:37;14.60;1.00
17146;DHT22;8688;54.444;18.444;2022-09-03T07:56:07;14.60;1.00
17146;DHT22;8688;54.444;18.444;2022-09-03T08:01:41;14.50;1.00
17146;DHT22;8688;54.444;18.444;2022-09-03T08:04:12;14.60;1.00
17146;DHT22;8688;54.444;18.444;2022-09-03T08:06:57;14.80;1.00
17146;DHT22;8688;54.444;18.444;2022-09-03T08:09:25;15.00;1.00
17146;DHT22;8688;54.444;18.444;2022-09-03T08:12:00;15.30;99.90
17146;DHT22;8688;54.444;18.444;2022-09-03T08:14:42;15.50;60.60
17146;DHT22;8688;54.444;18.444;2022-09-03T08:17:10;15.70;99.90
17146;DHT22;8688;54.444;18.444;2022-09-03T08:19:40;15.90;1.00
17146;DHT22;8688;54.444;18.444;2022-09-03T08:22:08;15.90;1.00
17146;DHT22;8688;54.444;18.444;2022-09-03T08:24:36;15.90;1.00
17146;DHT22;8688;54.444;18.444;2022-09-03T08:27:03;15.80;99.90
17146;DHT22;8688;54.444;18.444;2022-09-03T08:29:30;15.70;99.90
17146;DHT22;8688;54.444;18.444;2022-09-03T08:31:58;15.60;1.00
17146;DHT22;8688;54.444;18.444;2022-09-03T08:34:25;15.40;1.00
17146;DHT22;8688;54.444;18.444;2022-09-03T08:36:54;15.40;1.00
17146;DHT22;8688;54.444;18.444;2022-09-03T08:39:21;15.40;1.00
17146;DHT22;8688;54.444;18.444;2022-09-03T08:42:21;15.40;1.00
17146;DHT22;8688;54.444;18.444;2022-09-03T08:44:53;15.50;1.00
17146;DHT22;8688;54.444;18.444;2022-09-03T08:47:25;15.60;1.00
17146;DHT22;8688;54.444;18.444;2022-09-03T08:49:57;15.60;1.00
17146;DHT22;8688;54.444;18.444;2022-09-03T08:52:32;15.60;1.00
17146;DHT22;8688;54.444;18.444;2022-09-03T08:55:13;15.70;1.00
17146;DHT22;8688;54.444;18.444;2022-09-03T08:57:46;15.70;1.00
17146;DHT22;8688;54.444;18.444;2022-09-03T09:00:14;15.80;1.00
17146;DHT22;8688;54.444;18.444;2022-09-03T09:02:52;15.90;1.00
17146;DHT22;8688;54.444;18.444;2022-09-03T09:05:25;15.90;1.00
17146;DHT22;8688;54.444;18.444;2022-09-03T09:08:03;15.80;1.00
17146;DHT22;8688;54.444;18.444;2022-09-03T09:10:39;15.80;1.00
17146;DHT22;8688;54.444;18.444;2022-09-03T09:13:19;15.90;1.00
17146;DHT22;8688;54.444;18.444;2022-09-03T09:15:53;15.80;1.00
17146;DHT22;8688;54.444;18.444;2022-09-03T09:18:33;15.70;1.00
17146;DHT22;8688;54.444;18.444;2022-09-03T09:21:08;15.60;1.00
17146;DHT22;8688;54.444;18.444;2022-09-03T09:23:45;15.70;1.00
17146;DHT22;8688;54.444;18.444;2022-09-03T09:26:15;15.80;1.00
17146;DHT22;8688;54.444;18.444;2022-09-03T09:28:52;16.00;1.00
17146;DHT22;8688;54.444;18.444;2022-09-03T09:31:21;16.20;1.00
17146;DHT22;8688;54.444;18.444;2022-09-03T09:33:48;16.40;1.00
17146;DHT22;8688;54.444;18.444;2022-09-03T09:36:17;16.40;1.00
17146;DHT22;8688;54.444;18.444;2022-09-03T09:38:46;16.20;1.00
17146;DHT22;8688;54.444;18.444;2022-09-03T09:41:15;15.90;1.00
17146;DHT22;8688;54.444;18.444;2022-09-03T09:43:44;15.70;1.00
17146;DHT22;8688;54.444;18.444;2022-09-03T09:46:15;15.60;1.00
17146;DHT22;8688;54.444;18.444;2022-09-03T09:48:48;15.70;1.00
17146;DHT22;8688;54.444;18.444;2022-09-03T09:51:21;15.80;1.00
17146;DHT22;8688;54.444;18.444;2022-09-03T09:54:00;15.80;1.00
17146;DHT22;8688;54.444;18.444;2022-09-03T09:56:28;15.80;1.00
17146;DHT22;8688;54.444;18.444;2022-09-03T09:59:02;15.90;1.00
17146;DHT22;8688;54.444;18.444;2022-09-03T10:01:30;15.90;1.00
17146;DHT22;8688;54.444;18.444;2022-09-03T10:03:59;15.90;1.00
17146;DHT22;8688;54.444;18.444;2022-09-03T10:06:29;15.90;1.00
17146;DHT22;8688;54.444;18.444;2022-09-03T10:09:16;16.00;1.00
17146;DHT22;8688;54.444;18.444;2022-09-03T10:11:46;15.90;99.90
17146;DHT22;8688;54.444;18.444;2022-09-03T10:14:21;15.90;99.90
17146;DHT22;8688;54.444;18.444;2022-09-03T10:16:55;15.90;99.90
17146;DHT22;8688;54.444;18.444;2022-09-03T10:19:30;16.00;99.90
17146;DHT22;8688;54.444;18.444;2022-09-03T10:22:06;16.10;99.90
17146;DHT22;8688;54.444;18.444;2022-09-03T10:24:46;16.10;99.90
17146;DHT22;8688;54.444;18.444;2022-09-03T10:27:15;16.10;99.90
17146;DHT22;8688;54.444;18.444;2022-09-03T10:29:44;16.10;99.90
17146;DHT22;8688;54.444;18.444;2022-09-03T10:32:29;16.10;99.90
17146;DHT22;8688;54.444;18.444;2022-09-03T10:35:05;16.40;99.90
17146;DHT22;8688;54.444;18.444;2022-09-03T10:37:39;16.70;99.90
17146;DHT22;8688;54.444;18.444;2022-09-03T10:40:24;16.90;99.90
17146;DHT22;8688;54.444;18.444;2022-09-03T10:43:07;16.80;99.90
17146;DHT22;8688;54.444;18.444;2022-09-03T10:45:48;16.60;99.90
17146;DHT22;8688;54.444;18.444;2022-09-03T10:48:57;16.20;99.90
17146;DHT22;8688;54.444;18.444;2022-09-03T10:51:34;16.10;99.90
17146;DHT22;8688;54.444;18.444;2022-09-03T10:54:19;16.40;99.90
17146;DHT22;8688;54.444;18.444;2022-09-03T10:56:56;16.60;99.90
17146;DHT22;8688;54.444;18.444;2022-09-03T10:59:38;16.70;99.90
17146;DHT22;8688;54.444;18.444;2022-09-03T11:05:16;17.00;99.90
17146;DHT22;8688;54.444;18.444;2022-09-03T11:07:49;16.90;99.90
17146;DHT22;8688;54.444;18.444;2022-09-03T11:10:21;17.10;99.90
17146;DHT22;8688;54.444;18.444;2022-09-03T11:13:01;16.90;99.90
17146;DHT22;8688;54.444;18.444;2022-09-03T11:15:33;16.90;99.90
17146;DHT22;8688;54.444;18.444;2022-09-03T11:18:13;16.70;99.90
17146;DHT22;8688;54.444;18.444;2022-09-03T11:20:43;16.40;99.90
17146;DHT22;8688;54.444;18.444;2022-09-03T11:23:23;16.50;99.90
17146;DHT22;8688;54.444;18.444;2022-09-03T11:25:55;16.50;99.90
17146;DHT22;8688;54.444;18.444;2022-09-03T11:28:35;16.50;99.90
17146;DHT22;8688;54.444;18.444;2022-09-03T11:31:22;16.50;99.90
17146;DHT22;8688;54.444;18.444;2022-09-03T11:33:53;16.20;99.90
17146;DHT22;8688;54.444;18.444;2022-09-03T11:36:30;16.20;99.90
17146;DHT22;8688;54.444;18.444;2022-09-03T11:38:58;16.30;99.90
17146;DHT22;8688;54.444;18.444;2022-09-03T11:41:27;16.50;99.90
17146;DHT22;8688;54.444;18.444;2022-09-03T11:44:16;16.50;99.90
17146;DHT22;8688;54.444;18.444;2022-09-03T11:46:53;16.50;99.90
17146;DHT22;8688;54.444;18.444;2022-09-03T11:49:29;16.50;99.90
17146;DHT22;8688;54.444;18.444;2022-09-03T11:51:59;16.60;99.90
17146;DHT22;8688;54.444;18.444;2022-09-03T11:54:30;16.80;99.90
17146;DHT22;8688;54.444;18.444;2022-09-03T11:57:11;17.00;99.90
17146;DHT22;8688;54.444;18.444;2022-09-03T11:59:42;17.10;99.90
17146;DHT22;8688;54.444;18.444;2022-09-03T12:02:23;17.10;99.90
17146;DHT22;8688;54.444;18.444;2022-09-03T12:05:01;17.00;99.90
17146;DHT22;8688;54.444;18.444;2022-09-03T12:07:40;16.60;99.90
17146;DHT22;8688;54.444;18.444;2022-09-03T12:10:29;16.70;99.90
17146;DHT22;8688;54.444;18.444;2022-09-03T12:13:14;16.70;99.90
17146;DHT22;8688;54.444;18.444;2022-09-03T12:16:05;16.20;99.90
17146;DHT22;8688;54.444;18.444;2022-09-03T12:18:38;16.10;99.90
17146;DHT22;8688;54.444;18.444;2022-09-03T12:21:08;16.30;99.90
17146;DHT22;8688;54.444;18.444;2022-09-03T12:23:41;16.40;99.90
17146;DHT22;8688;54.444;18.444;2022-09-03T12:26:11;16.50;99.90
17146;DHT22;8688;54.444;18.444;2022-09-03T12:28:46;16.70;99.90
17146;DHT22;8688;54.444;18.444;2022-09-03T12:31:17;16.70;99.90
17146;DHT22;8688;54.444;18.444;2022-09-03T12:33:49;16.80;99.90
17146;DHT22;8688;54.444;18.444;2022-09-03T12:36:19;16.80;53.30
17146;DHT22;8688;54.444;18.444;2022-09-03T12:38:46;16.80;35.10
17146;DHT22;8688;54.444;18.444;2022-09-03T12:41:24;16.90;12.40
17146;DHT22;8688;54.444;18.444;2022-09-03T12:43:55;16.90;23.40
17146;DHT22;8688;54.444;18.444;2022-09-03T12:46:28;16.90;42.60
17146;DHT22;8688;54.444;18.444;2022-09-03T12:48:57;16.90;33.10
17146;DHT22;8688;54.444;18.444;2022-09-03T12:51:36;16.70;13.50
17146;DHT22;8688;54.444;18.444;2022-09-03T12:54:05;16.60;23.10
17146;DHT22;8688;54.444;18.444;2022-09-03T12:56:35;16.70;46.00
17146;DHT22;8688;54.444;18.444;2022-09-03T12:59:06;16.80;11.00
17146;DHT22;8688;54.444;18.444;2022-09-03T13:01:41;16.80;19.40
17146;DHT22;8688;54.444;18.444;2022-09-03T13:04:12;16.70;1.00
17146;DHT22;8688;54.444;18.444;2022-09-03T13:06:48;16.60;1.00
17146;DHT22;8688;54.444;18.444;2022-09-03T13:09:21;16.50;1.00
17146;DHT22;8688;54.444;18.444;2022-09-03T13:11:50;16.50;1.00
17146;DHT22;8688;54.444;18.444;2022-09-03T13:14:20;16.50;1.00
17146;DHT22;8688;54.444;18.444;2022-09-03T13:17:01;16.80;1.00
17146;DHT22;8688;54.444;18.444;2022-09-03T13:19:40;16.80;1.00
17146;DHT22;8688;54.444;18.444;2022-09-03T13:22:20;16.80;1.00
17146;DHT22;8688;54.444;18.444;2022-09-03T13:25:11;16.80;1.00
17146;DHT22;8688;54.444;18.444;2022-09-03T13:27:44;16.80;1.00
17146;DHT22;8688;54.444;18.444;2022-09-03T13:30:19;16.80;1.00
17146;DHT22;8688;54.444;18.444;2022-09-03T13:32:56;16.70;1.00
17146;DHT22;8688;54.444;18.444;2022-09-03T13:35:32;16.70;1.00
17146;DHT22;8688;54.444;18.444;2022-09-03T13:38:07;16.70;1.00
17146;DHT22;8688;54.444;18.444;2022-09-03T13:40:41;16.90;1.00
17146;DHT22;8688;54.444;18.444;2022-09-03T13:43:25;16.90;1.00
17146;DHT22;8688;54.444;18.444;2022-09-03T13:45:57;16.90;1.00
17146;DHT22;8688;54.444;18.444;2022-09-03T13:48:31;17.10;1.00
17146;DHT22;8688;54.444;18.444;2022-09-03T13:51:23;17.00;1.00
17146;DHT22;8688;54.444;18.444;2022-09-03T13:54:06;17.10;1.00
17146;DHT22;8688;54.444;18.444;2022-09-03T13:56:47;17.00;1.00
17146;DHT22;8688;54.444;18.444;2022-09-03T13:59:22;16.80;1.00
17146;DHT22;8688;54.444;18.444;2022-09-03T14:02:04;16.70;1.00
17146;DHT22;8688;54.444;18.444;2022-09-03T14:04:48;16.70;1.00
17146;DHT22;8688;54.444;18.444;2022-09-03T14:07:22;16.90;1.00
17146;DHT22;8688;54.444;18.444;2022-09-03T14:09:57;16.90;1.00
17146;DHT22;8688;54.444;18.444;2022-09-03T14:12:37;16.90;1.00
17146;DHT22;8688;54.444;18.444;2022-09-03T14:15:15;17.00;1.00
17146;DHT22;8688;54.444;18.444;2022-09-03T14:17:48;17.00;1.00
17146;DHT22;8688;54.444;18.444;2022-09-03T14:20:23;17.20;1.00
17146;DHT22;8688;54.444;18.444;2022-09-03T14:22:55;17.30;1.00
17146;DHT22;8688;54.444;18.444;2022-09-03T14:25:28;17.20;1.00
17146;DHT22;8688;54.444;18.444;2022-09-03T14:28:13;16.90;1.00
17146;DHT22;8688;54.444;18.444;2022-09-03T14:30:46;16.90;1.00
17146;DHT22;8688;54.444;18.444;2022-09-03T14:33:20;16.90;1.00
17146;DHT22;8688;54.444;18.444;2022-09-03T14:36:10;17.20;1.00
17146;DHT22;8688;54.444;18.444;2022-09-03T14:39:05;16.80;1.00
17146;DHT22;8688;54.444;18.444;2022-09-03T14:42:09;16.50;1.00
17146;DHT22;8688;54.444;18.444;2022-09-03T14:45:09;16.60;1.00
17146;DHT22;8688;54.444;18.444;2022-09-03T14:47:49;16.60;1.00
17146;DHT22;8688;54.444;18.444;2022-09-03T14:50:27;16.30;1.00
17146;DHT22;8688;54.444;18.444;2022-09-03T14:53:12;16.00;1.00
17146;DHT22;8688;54.444;18.444;2022-09-03T14:58:52;15.70;1.00
17146;DHT22;8688;54.444;18.444;2022-09-03T15:01:28;15.50;1.00
17146;DHT22;8688;54.444;18.444;2022-09-03T15:04:25;15.90;1.00
17146;DHT22;8688;54.444;18.444;2022-09-03T15:07:08;16.30;1.00
17146;DHT22;8688;54.444;18.444;2022-09-03T15:09:45;16.70;1.00
17146;DHT22;8688;54.444;18.444;2022-09-03T15:12:24;16.60;1.00
17146;DHT22;8688;54.444;18.444;2022-09-03T15:14:56;16.60;1.00
17146;DHT22;8688;54.444;18.444;2022-09-03T15:17:46;16.30;1.00
17146;DHT22;8688;54.444;18.444;2022-09-03T15:20:25;16.00;1.00
17146;DHT22;8688;54.444;18.444;2022-09-03T15:26:24;15.60;1.00
17146;DHT22;8688;54.444;18.444;2022-09-03T15:29:16;15.80;1.00
17146;DHT22;8688;54.444;18.444;2022-09-03T15:31:57;15.80;1.00
17146;DHT22;8688;54.444;18.444;2022-09-03T15:37:31;16.00;1.00
17146;DHT22;8688;54.444;18.444;2022-09-03T15:40:07;15.80;1.00
17146;DHT22;8688;54.444;18.444;2022-09-03T15:42:43;15.70;1.00
17146;DHT22;8688;54.444;18.444;2022-09-03T15:45:20;15.50;1.00
17146;DHT22;8688;54.444;18.444;2022-09-03T15:47:56;15.50;1.00
17146;DHT22;8688;54.444;18.444;2022-09-03T15:50:34;15.50;1.00
17146;DHT22;8688;54.444;18.444;2022-09-03T15:53:20;15.60;1.00
17146;DHT22;8688;54.444;18.444;2022-09-03T15:56:06;15.80;1.00
17146;DHT22;8688;54.444;18.444;2022-09-03T15:58:44;15.60;1.00
17146;DHT22;8688;54.444;18.444;2022-09-03T16:01:34;15.50;1.00
17146;DHT22;8688;54.444;18.444;2022-09-03T16:04:31;15.40;1.00
17146;DHT22;8688;54.444;18.444;2022-09-03T16:07:15;15.40;1.00
17146;DHT22;8688;54.444;18.444;2022-09-03T16:09:55;15.40;1.00
17146;DHT22;8688;54.444;18.444;2022-09-03T16:12:35;15.40;1.00
17146;DHT22;8688;54.444;18.444;2022-09-03T16:15:14;15.40;1.00
17146;DHT22;8688;54.444;18.444;2022-09-03T16:17:54;15.40;1.00
17146;DHT22;8688;54.444;18.444;2022-09-03T16:20:35;15.40;1.00
17146;DHT22;8688;54.444;18.444;2022-09-03T16:23:14;15.40;1.00
17146;DHT22;8688;54.444;18.444;2022-09-03T16:25:50;15.30;1.00
17146;DHT22;8688;54.444;18.444;2022-09-03T16:28:29;15.20;1.00
17146;DHT22;8688;54.444;18.444;2022-09-03T16:31:18;15.10;1.00
17146;DHT22;8688;54.444;18.444;2022-09-03T16:33:59;15.10;1.80
17146;DHT22;8688;54.444;18.444;2022-09-03T16:36:42;15.00;1.50
17146;DHT22;8688;54.444;18.444;2022-09-03T16:39:23;15.00;8.00
17146;DHT22;8688;54.444;18.444;2022-09-03T16:42:02;14.90;6.00
17146;DHT22;8688;54.444;18.444;2022-09-03T16:44:43;14.80;8.80
17146;DHT22;8688;54.444;18.444;2022-09-03T16:47:32;14.70;13.60
17146;DHT22;8688;54.444;18.444;2022-09-03T16:50:17;14.60;16.90
17146;DHT22;8688;54.444;18.444;2022-09-03T16:53:05;14.60;22.90
17146;DHT22;8688;54.444;18.444;2022-09-03T16:55:59;14.50;21.90
17146;DHT22;8688;54.444;18.444;2022-09-03T16:58:44;14.40;28.20
17146;DHT22;8688;54.444;18.444;2022-09-03T17:01:30;14.40;26.10
17146;DHT22;8688;54.444;18.444;2022-09-03T17:04:34;14.30;32.10